Terminal Aerodrome Forecast
Issued by NWS

Current Version | Previous Version | Graphics & Text | Print | Product List | Glossary On
Versions: 1 2 3 4 5 6 7 8 9 10 11 12 13 14 15 16
000
FTUS41 KPBZ 172300
TAFHLG
TAF
KHLG 172320Z 1800/1824 23008KT P6SM BKN040
     FM180700 26010KT P6SM VCSH BKN020
     FM181400 27010G20KT P6SM VCSH BKN020=

USA.gov is the U.S. government's official web portal to all federal, state and local government web resources and services.